createdAt,value
2023-02-27T00:00:27.241Z,0.20
2023-02-27T00:06:05.239Z,0.13
2023-02-27T00:11:14.281Z,0.08
2023-02-27T00:16:33.926Z,-0.00
2023-02-27T00:21:44.880Z,-0.05
2023-02-27T00:26:50.879Z,-0.12
2023-02-27T00:32:04.524Z,-0.17
2023-02-27T00:37:31.394Z,-0.18
2023-02-27T00:42:58.817Z,-0.14
2023-02-27T00:48:08.065Z,-0.13
2023-02-27T00:53:24.531Z,-0.17
2023-02-27T00:58:55.724Z,-0.18
2023-02-27T01:04:14.225Z,-0.17
2023-02-27T01:09:27.365Z,-0.20
2023-02-27T01:14:49.512Z,-0.23
2023-02-27T01:19:56.098Z,-0.19
2023-02-27T01:25:15.530Z,-0.17
2023-02-27T01:30:26.434Z,-0.17
2023-02-27T01:35:41.087Z,-0.13
2023-02-27T01:41:07.807Z,-0.18
2023-02-27T01:46:24.908Z,-0.22
2023-02-27T01:51:50.414Z,-0.22
2023-02-27T01:56:57.614Z,-0.20
2023-02-27T02:02:31.137Z,-0.19
2023-02-27T02:07:38.631Z,-0.19
2023-02-27T02:12:55.900Z,-0.19
2023-02-27T02:19:20.383Z,-0.22
2023-02-27T02:24:56.549Z,-0.22
2023-02-27T02:31:21.238Z,-0.27
2023-02-27T02:37:36.580Z,-0.30
2023-02-27T02:43:11.174Z,-0.33
2023-02-27T02:48:42.733Z,-0.39
2023-02-27T02:54:10.685Z,-0.41
2023-02-27T03:00:00.801Z,-0.33
2023-02-27T03:05:40.246Z,-0.26
2023-02-27T03:10:59.666Z,-0.25
2023-02-27T03:16:34.196Z,-0.33
2023-02-27T03:22:06.630Z,-0.34
2023-02-27T03:27:16.687Z,-0.31
2023-02-27T03:32:54.875Z,-0.24
2023-02-27T03:38:27.941Z,-0.02
2023-02-27T03:44:30.938Z,0.00
2023-02-27T03:49:51.086Z,-0.03
2023-02-27T03:55:01.642Z,-0.10
2023-02-27T04:00:12.643Z,-0.14
2023-02-27T04:05:46.742Z,-0.41
2023-02-27T04:11:30.590Z,-0.50
2023-02-27T04:16:42.834Z,-0.44
2023-02-27T04:22:29.118Z,-0.37
2023-02-27T04:27:51.176Z,-0.49
2023-02-27T04:33:18.508Z,-0.62
2023-02-27T04:38:33.154Z,-0.75
2023-02-27T04:43:46.082Z,-0.94
2023-02-27T04:49:12.777Z,-1.08
2023-02-27T04:54:28.431Z,-1.17
2023-02-27T04:59:58.554Z,-1.21
2023-02-27T05:05:17.790Z,-1.14
2023-02-27T05:10:37.882Z,-1.07
2023-02-27T05:15:49.756Z,-1.04
2023-02-27T05:21:09.609Z,-0.89
2023-02-27T05:27:14.230Z,-0.89
2023-02-27T05:32:42.187Z,-0.86
2023-02-27T05:38:06.610Z,-0.87
2023-02-27T05:43:21.360Z,-0.87
2023-02-27T05:48:35.952Z,-0.94
2023-02-27T05:53:50.888Z,-1.12
2023-02-27T05:59:14.741Z,-1.08
2023-02-27T06:04:20.812Z,-0.94
2023-02-27T06:09:24.108Z,-0.85
2023-02-27T06:14:27.853Z,-0.94
2023-02-27T06:19:31.211Z,-0.82
2023-02-27T06:24:39.889Z,-0.90
2023-02-27T06:29:43.156Z,-1.05
2023-02-27T06:34:49.545Z,-1.13
2023-02-27T06:39:52.996Z,-1.12
2023-02-27T06:44:56.229Z,-0.77
2023-02-27T06:49:59.761Z,-0.48
2023-02-27T06:55:04.794Z,-0.01
2023-02-27T07:00:12.482Z,0.32
2023-02-27T07:05:18.326Z,0.67
2023-02-27T07:10:21.623Z,0.56
2023-02-27T07:15:25.377Z,0.39
2023-02-27T07:20:28.737Z,0.33
2023-02-27T07:25:31.919Z,0.35
2023-02-27T07:30:35.272Z,0.63
2023-02-27T07:35:38.969Z,0.83
2023-02-27T07:40:45.021Z,0.89
2023-02-27T07:45:55.732Z,0.95
2023-02-27T07:51:02.265Z,0.97
2023-02-27T07:56:06.461Z,1.00
2023-02-27T08:01:12.282Z,0.74
2023-02-27T08:06:20.605Z,0.67
2023-02-27T08:11:24.126Z,0.69
2023-02-27T08:16:33.737Z,0.73
2023-02-27T08:21:45.835Z,0.71
2023-02-27T08:26:58.265Z,0.75
2023-02-27T08:32:05.183Z,0.73
2023-02-27T08:37:08.452Z,0.79
2023-02-27T08:42:11.663Z,0.96
2023-02-27T08:47:15.064Z,1.28
2023-02-27T08:52:39.005Z,1.46
2023-02-27T08:57:48.516Z,1.74
2023-02-27T09:02:57.200Z,1.89
2023-02-27T09:08:08.363Z,1.94
2023-02-27T09:13:17.353Z,2.07
2023-02-27T09:18:24.347Z,1.95
2023-02-27T09:23:45.547Z,2.14
2023-02-27T09:28:49.764Z,2.34
2023-02-27T09:33:53.226Z,2.54
2023-02-27T09:38:59.042Z,2.41
2023-02-27T09:44:47.678Z,2.40
2023-02-27T09:50:09.202Z,2.17
2023-02-27T09:55:35.081Z,1.75
2023-02-27T10:01:10.262Z,2.17
2023-02-27T10:06:33.790Z,2.75
2023-02-27T10:12:13.579Z,2.76
2023-02-27T10:17:35.370Z,2.50
2023-02-27T10:22:46.334Z,2.31
2023-02-27T10:27:57.102Z,2.28
2023-02-27T10:33:39.204Z,2.10
2023-02-27T10:38:51.178Z,1.83
2023-02-27T10:44:01.770Z,1.71
2023-02-27T10:49:24.050Z,2.18
2023-02-27T10:54:27.464Z,2.56
2023-02-27T10:59:38.927Z,2.69
2023-02-27T11:05:12.382Z,2.59
2023-02-27T11:10:28.984Z,2.74
2023-02-27T11:15:38.593Z,3.07
2023-02-27T11:21:04.502Z,3.29
2023-02-27T11:26:57.669Z,3.30
2023-02-27T11:32:12.759Z,3.27
2023-02-27T11:37:35.949Z,3.40
2023-02-27T11:42:56.136Z,3.49
2023-02-27T11:48:18.626Z,3.75
2023-02-27T11:54:15.855Z,3.65
2023-02-27T11:59:49.244Z,3.31
2023-02-27T12:04:57.891Z,3.11
2023-02-27T12:10:35.641Z,3.30
2023-02-27T12:16:31.647Z,3.02
2023-02-27T12:21:45.311Z,2.86
2023-02-27T12:27:30.172Z,3.30
2023-02-27T12:32:50.859Z,3.69
2023-02-27T12:38:07.823Z,3.55
2023-02-27T12:44:15.790Z,3.03
2023-02-27T12:49:42.086Z,3.20
2023-02-27T12:55:49.003Z,3.53
2023-02-27T13:01:41.781Z,3.65
2023-02-27T13:07:38.705Z,3.96
2023-02-27T13:13:17.324Z,3.76
2023-02-27T13:19:01.565Z,3.39
2023-02-27T13:24:33.736Z,3.48
2023-02-27T13:29:55.683Z,3.48
2023-02-27T13:36:00.474Z,3.58
2023-02-27T13:41:50.524Z,3.48
2023-02-27T13:47:37.966Z,3.43
2023-02-27T13:52:48.761Z,3.49
2023-02-27T13:57:57.950Z,3.37
2023-02-27T14:03:33.732Z,3.54
2023-02-27T14:09:14.099Z,3.69
2023-02-27T14:14:57.471Z,3.71
2023-02-27T14:20:30.968Z,3.74
2023-02-27T14:25:41.219Z,3.77
2023-02-27T14:31:07.709Z,3.72
2023-02-27T14:37:17.346Z,3.60
2023-02-27T14:43:06.901Z,3.46
2023-02-27T14:48:38.895Z,3.44
2023-02-27T14:54:19.420Z,3.59
2023-02-27T14:59:56.528Z,3.57
2023-02-27T15:05:02.673Z,3.19
2023-02-27T15:10:17.327Z,3.12
2023-02-27T15:15:31.586Z,2.97
2023-02-27T15:20:37.990Z,2.92
2023-02-27T15:25:54.565Z,2.93
2023-02-27T15:31:20.863Z,2.87
2023-02-27T15:36:45.176Z,2.62
2023-02-27T15:41:59.287Z,2.45
2023-02-27T15:47:26.164Z,2.27
2023-02-27T15:53:34.923Z,2.11
2023-02-27T15:59:17.562Z,1.95
2023-02-27T16:04:53.612Z,1.78
2023-02-27T16:11:11.616Z,1.61
2023-02-27T16:44:32.308Z,0.64
2023-02-27T16:50:50.556Z,0.43
2023-02-27T16:57:15.675Z,0.22
2023-02-27T17:03:23.865Z,-0.01
2023-02-27T17:09:33.699Z,-0.17
2023-02-27T17:14:58.194Z,-0.26
2023-02-27T17:21:13.946Z,-0.32
2023-02-27T17:34:10.667Z,-0.53
2023-02-27T17:40:03.965Z,-0.62
2023-02-27T17:46:06.706Z,-0.69
2023-02-27T17:51:40.327Z,-0.74
2023-02-27T17:56:56.385Z,-0.70
2023-02-27T18:02:32.845Z,-0.79
2023-02-27T18:07:49.546Z,-0.95
2023-02-27T18:13:10.604Z,-1.06
2023-02-27T18:18:17.498Z,-1.17
2023-02-27T18:23:56.875Z,-1.27
2023-02-27T18:30:20.416Z,-1.35
2023-02-27T18:38:01.309Z,-1.27
2023-02-27T18:42:00.281Z,-1.23
2023-02-27T18:47:30.387Z,-1.21
2023-02-27T18:53:02.169Z,-1.38
2023-02-27T18:58:06.282Z,-1.57
2023-02-27T19:03:24.557Z,-1.55
2023-02-27T19:09:35.064Z,-1.70
2023-02-27T19:14:50.191Z,-1.86
2023-02-27T19:20:09.349Z,-1.95
2023-02-27T19:25:17.205Z,-2.02
2023-02-27T19:30:29.213Z,-1.94
2023-02-27T19:36:16.959Z,-1.75
2023-02-27T19:41:53.655Z,-1.82
2023-02-27T19:47:55.630Z,-1.77
2023-02-27T20:07:50.766Z,-1.62
2023-02-27T20:13:56.486Z,-1.54
2023-02-27T20:18:59.826Z,-1.49
2023-02-27T20:24:03.527Z,-1.38
2023-02-27T20:29:17.459Z,-1.42
2023-02-27T20:34:25.867Z,-1.57
2023-02-27T20:39:29.837Z,-1.73
2023-02-27T20:44:44.678Z,-2.06
2023-02-27T20:49:47.825Z,-2.35
2023-02-27T20:55:04.569Z,-2.43
2023-02-27T21:00:25.448Z,-2.33
2023-02-27T21:05:34.476Z,-2.23
2023-02-27T21:10:51.144Z,-2.28
2023-02-27T21:16:00.490Z,-2.28
2023-02-27T21:21:11.028Z,-2.36
2023-02-27T21:26:34.813Z,-2.52
2023-02-27T21:31:52.429Z,-2.68
2023-02-27T21:37:03.041Z,-2.87
2023-02-27T21:42:09.118Z,-3.03
2023-02-27T21:47:12.544Z,-3.26
2023-02-27T21:52:21.244Z,-3.35
2023-02-27T21:57:24.499Z,-3.39
2023-02-27T22:02:31.071Z,-3.36
2023-02-27T22:08:14.841Z,-3.38
2023-02-27T22:13:36.481Z,-3.39
2023-02-27T22:18:42.983Z,-3.37
2023-02-27T22:24:04.712Z,-3.37
2023-02-27T22:29:34.006Z,-3.30
2023-02-27T22:34:37.233Z,-3.19
2023-02-27T22:40:37.390Z,-3.11
2023-02-27T22:46:11.398Z,-3.17
2023-02-27T22:52:00.483Z,-3.20
2023-02-27T22:57:12.687Z,-3.30
2023-02-27T23:02:18.999Z,-3.35
2023-02-27T23:07:24.928Z,-3.35
2023-02-27T23:12:51.598Z,-3.39
2023-02-27T23:18:04.172Z,-3.55
2023-02-27T23:23:13.180Z,-3.56
2023-02-27T23:28:30.042Z,-3.60
2023-02-27T23:33:50.788Z,-3.58
2023-02-27T23:38:54.437Z,-3.65
2023-02-27T23:44:16.788Z,-3.63
2023-02-27T23:49:27.361Z,-3.53
2023-02-27T23:54:30.656Z,-3.46
2023-02-27T23:59:33.918Z,-3.46
